createdAt,value
2022-09-11T00:00:45.543Z,4.03
2022-09-11T00:01:48.289Z,4.41
2022-09-11T00:02:51.222Z,4.50
2022-09-11T00:03:53.726Z,4.25
2022-09-11T00:04:56.161Z,5.24
2022-09-11T00:05:58.991Z,4.05
2022-09-11T00:07:01.849Z,5.10
2022-09-11T00:08:04.293Z,3.77
2022-09-11T00:09:06.956Z,4.44
2022-09-11T00:10:10.558Z,4.16
2022-09-11T00:11:13.430Z,4.05
2022-09-11T00:12:15.868Z,4.24
2022-09-11T00:13:18.347Z,3.34
2022-09-11T00:14:20.798Z,4.23
2022-09-11T00:15:23.243Z,3.67
2022-09-11T00:16:27.602Z,4.01
2022-09-11T00:17:30.419Z,4.33
2022-09-11T00:18:32.859Z,4.00
2022-09-11T00:19:35.316Z,4.09
2022-09-11T00:20:38.441Z,4.06
2022-09-11T00:21:41.375Z,4.78
2022-09-11T00:22:44.058Z,3.60
2022-09-11T00:23:46.534Z,4.05
2022-09-11T00:24:48.972Z,3.76
2022-09-11T00:25:51.736Z,3.71
2022-09-11T00:26:54.406Z,3.69
2022-09-11T00:27:57.038Z,3.67
2022-09-11T00:28:59.816Z,4.58
2022-09-11T00:30:02.501Z,4.16
2022-09-11T00:31:05.506Z,4.41
2022-09-11T00:32:08.129Z,4.43
2022-09-11T00:33:10.591Z,4.87
2022-09-11T00:34:13.029Z,4.47
2022-09-11T00:35:15.467Z,3.76
2022-09-11T00:36:18.403Z,4.31
2022-09-11T00:37:20.863Z,3.91
2022-09-11T00:38:23.299Z,4.16
2022-09-11T00:39:25.739Z,4.43
2022-09-11T00:40:28.810Z,3.29
2022-09-11T00:41:31.443Z,3.87
2022-09-11T00:42:34.214Z,3.91
2022-09-11T00:43:36.651Z,3.53
2022-09-11T00:44:39.084Z,3.25
2022-09-11T00:45:41.550Z,4.22
2022-09-11T00:46:44.165Z,3.71
2022-09-11T00:47:46.977Z,3.96
2022-09-11T00:48:49.511Z,3.53
2022-09-11T00:49:51.959Z,3.72
2022-09-11T00:50:54.590Z,3.99
2022-09-11T00:51:57.227Z,3.63
2022-09-11T00:52:59.724Z,3.48
2022-09-11T00:54:02.170Z,3.12
2022-09-11T00:55:04.603Z,3.92
2022-09-11T00:56:07.348Z,3.44
2022-09-11T00:57:09.987Z,4.34
2022-09-11T00:58:12.442Z,4.17
2022-09-11T00:59:14.877Z,3.57
2022-09-11T01:00:17.739Z,3.27
2022-09-11T01:01:20.390Z,3.78
2022-09-11T01:02:26.813Z,3.71
2022-09-11T01:03:27.441Z,3.28
2022-09-11T01:04:29.879Z,4.31
2022-09-11T01:05:32.339Z,3.92
2022-09-11T01:06:35.212Z,3.32
2022-09-11T01:07:37.653Z,3.87
2022-09-11T01:08:40.343Z,3.59
2022-09-11T01:09:42.879Z,3.17
2022-09-11T01:10:45.608Z,2.83
2022-09-11T01:11:48.062Z,2.96
2022-09-11T01:12:50.530Z,3.35
2022-09-11T01:13:53.042Z,3.21
2022-09-11T01:14:55.472Z,2.97
2022-09-11T01:15:57.939Z,2.88
2022-09-11T01:17:00.673Z,3.03
2022-09-11T01:18:03.105Z,3.26
2022-09-11T01:19:05.569Z,3.37
2022-09-11T01:20:08.416Z,2.99
2022-09-11T01:21:11.060Z,2.90
2022-09-11T01:22:13.721Z,2.81
2022-09-11T01:23:16.158Z,2.67
2022-09-11T01:24:18.619Z,3.78
2022-09-11T01:25:21.069Z,3.40
2022-09-11T01:26:23.808Z,2.73
2022-09-11T01:27:26.242Z,2.47
2022-09-11T01:28:28.695Z,3.05
2022-09-11T01:29:31.155Z,3.26
2022-09-11T01:30:34.192Z,2.89
2022-09-11T01:31:36.693Z,2.63
2022-09-11T01:32:39.200Z,3.44
2022-09-11T01:33:41.769Z,2.66
2022-09-11T01:34:44.619Z,3.07
2022-09-11T01:35:47.110Z,3.41
2022-09-11T01:36:50.150Z,2.78
2022-09-11T01:37:52.584Z,2.51
2022-09-11T01:38:55.016Z,2.56
2022-09-11T01:39:57.540Z,2.33
2022-09-11T01:41:00.249Z,2.50
2022-09-11T01:42:02.883Z,2.59
2022-09-11T01:43:05.629Z,3.06
2022-09-11T01:44:08.056Z,2.46
2022-09-11T01:45:10.538Z,2.53
2022-09-11T01:46:14.789Z,2.99
2022-09-11T01:47:17.441Z,2.49
2022-09-11T01:48:20.185Z,2.36
2022-09-11T01:49:22.620Z,2.21
2022-09-11T01:50:25.649Z,2.63
2022-09-11T01:51:28.079Z,2.74
2022-09-11T01:52:30.554Z,2.65
2022-09-11T01:53:33.282Z,2.60
2022-09-11T01:54:35.851Z,2.78
2022-09-11T01:55:38.315Z,2.69
2022-09-11T01:56:40.865Z,2.34
2022-09-11T01:57:43.302Z,2.59
2022-09-11T01:58:45.972Z,2.69
2022-09-11T01:59:48.406Z,2.12
2022-09-11T02:00:51.060Z,2.56
2022-09-11T02:01:53.694Z,2.40
2022-09-11T02:02:58.046Z,2.25
2022-09-11T02:04:00.477Z,2.39
2022-09-11T02:05:03.117Z,2.20
2022-09-11T02:06:05.895Z,2.41
2022-09-11T02:07:08.528Z,2.02
2022-09-11T02:08:10.970Z,2.44
2022-09-11T02:09:13.402Z,2.23
2022-09-11T02:10:17.455Z,2.15
2022-09-11T02:11:19.918Z,2.24
2022-09-11T02:12:22.376Z,2.02
2022-09-11T02:13:27.723Z,2.44
2022-09-11T02:14:29.173Z,2.18
2022-09-11T02:15:31.622Z,2.53
2022-09-11T02:16:34.478Z,2.14
2022-09-11T02:17:37.970Z,2.01
2022-09-11T02:18:40.426Z,1.76
2022-09-11T02:19:42.866Z,2.53
2022-09-11T02:20:45.713Z,2.93
2022-09-11T02:21:48.415Z,2.39
2022-09-11T02:22:50.956Z,2.17
2022-09-11T02:23:53.688Z,2.35
2022-09-11T02:24:56.130Z,2.11
2022-09-11T02:25:58.561Z,2.02
2022-09-11T02:27:01.747Z,2.17
2022-09-11T02:28:04.396Z,2.23
2022-09-11T02:29:06.931Z,3.29
2022-09-11T02:30:09.661Z,2.00
2022-09-11T02:31:12.451Z,2.15
2022-09-11T02:32:15.034Z,1.65
2022-09-11T02:33:17.455Z,1.71
2022-09-11T02:34:19.901Z,1.79
2022-09-11T02:35:22.330Z,1.94
2022-09-11T02:36:25.696Z,1.83
2022-09-11T02:37:28.176Z,2.21
2022-09-11T02:38:30.622Z,2.02
2022-09-11T02:39:33.052Z,1.71
2022-09-11T02:40:35.920Z,1.93
2022-09-11T02:41:38.766Z,1.53
2022-09-11T02:42:41.258Z,1.90
2022-09-11T02:43:43.901Z,2.75
2022-09-11T02:44:46.543Z,1.76
2022-09-11T02:45:49.029Z,1.77
2022-09-11T02:46:51.830Z,1.98
2022-09-11T02:47:54.315Z,1.63
2022-09-11T02:48:56.761Z,2.80
2022-09-11T02:49:59.210Z,1.82
2022-09-11T02:51:02.218Z,1.46
2022-09-11T02:52:04.652Z,2.27
2022-09-11T02:53:07.126Z,1.36
2022-09-11T02:54:09.619Z,1.52
2022-09-11T02:55:12.070Z,1.77
2022-09-11T02:56:14.911Z,2.61
2022-09-11T02:57:17.358Z,1.41
2022-09-11T02:58:19.832Z,1.43
2022-09-11T02:59:22.581Z,2.52
2022-09-11T03:00:26.542Z,2.17
2022-09-11T03:01:28.985Z,1.55
2022-09-11T03:02:31.428Z,1.86
2022-09-11T03:03:33.966Z,1.69
2022-09-11T03:04:36.537Z,1.71
2022-09-11T03:05:38.977Z,1.54
2022-09-11T03:06:41.629Z,1.54
2022-09-11T03:07:44.080Z,1.76
2022-09-11T03:08:46.557Z,1.54
2022-09-11T03:09:48.996Z,2.24
2022-09-11T03:10:51.944Z,1.53
2022-09-11T03:11:54.383Z,1.67
2022-09-11T03:12:56.835Z,1.36
2022-09-11T03:13:59.310Z,1.75
2022-09-11T03:15:01.754Z,1.83
2022-09-11T03:16:04.459Z,1.27
2022-09-11T03:17:07.077Z,1.39
2022-09-11T03:18:09.523Z,1.36
2022-09-11T03:19:12.027Z,1.34
2022-09-11T03:20:15.681Z,2.92
2022-09-11T03:21:18.348Z,1.57
2022-09-11T03:22:20.791Z,1.70
2022-09-11T03:23:23.333Z,1.40
2022-09-11T03:24:25.825Z,1.43
2022-09-11T03:25:28.370Z,1.46
2022-09-11T03:26:31.004Z,1.79
2022-09-11T03:27:33.442Z,1.57
2022-09-11T03:28:36.197Z,1.64
2022-09-11T03:29:38.689Z,1.56
2022-09-11T03:30:41.434Z,2.18
2022-09-11T03:31:44.097Z,1.99
2022-09-11T03:32:46.646Z,1.52
2022-09-11T03:33:49.094Z,1.73
2022-09-11T03:34:51.582Z,1.65
2022-09-11T03:35:54.027Z,1.83
2022-09-11T03:36:56.903Z,1.89
2022-09-11T03:37:59.345Z,2.29
2022-09-11T03:39:01.844Z,3.21
2022-09-11T03:40:04.543Z,3.68
2022-09-11T03:41:07.453Z,2.92
2022-09-11T03:42:10.515Z,2.94
2022-09-11T03:43:12.963Z,2.28
2022-09-11T03:44:15.411Z,2.73
2022-09-11T03:45:17.880Z,3.17
2022-09-11T03:46:21.439Z,3.04
2022-09-11T03:47:23.883Z,1.94
2022-09-11T03:48:26.382Z,3.13
2022-09-11T03:49:28.837Z,2.62
2022-09-11T03:50:31.510Z,3.89
2022-09-11T03:51:33.959Z,2.69
2022-09-11T03:52:36.398Z,3.11
2022-09-11T03:53:38.882Z,2.61
2022-09-11T03:54:41.447Z,2.99
2022-09-11T03:55:43.956Z,2.27
2022-09-11T03:56:46.597Z,2.45
2022-09-11T03:57:49.255Z,2.55
2022-09-11T03:58:51.697Z,2.24
2022-09-11T03:59:54.353Z,2.02
2022-09-11T04:00:57.057Z,2.11
2022-09-11T04:01:59.719Z,1.57
2022-09-11T04:03:02.234Z,2.48
2022-09-11T04:04:04.676Z,1.91
2022-09-11T04:05:07.158Z,1.65
2022-09-11T04:06:10.051Z,1.50
2022-09-11T04:07:12.487Z,1.12
2022-09-11T04:08:15.034Z,1.30
2022-09-11T04:09:17.472Z,2.04
2022-09-11T04:10:20.437Z,1.89
2022-09-11T04:11:23.046Z,1.31
2022-09-11T04:12:25.494Z,1.70
2022-09-11T04:13:28.152Z,1.40
2022-09-11T04:14:30.621Z,1.53
2022-09-11T04:15:33.063Z,1.22
2022-09-11T04:16:35.909Z,1.61
2022-09-11T04:17:38.496Z,1.59
2022-09-11T04:18:41.269Z,1.47
2022-09-11T04:19:43.742Z,1.33
2022-09-11T04:20:46.501Z,1.36
2022-09-11T04:21:49.415Z,1.39
2022-09-11T04:22:51.861Z,1.29
2022-09-11T04:23:54.322Z,1.43
2022-09-11T04:24:56.853Z,1.31
2022-09-11T04:25:59.298Z,1.70
2022-09-11T04:27:01.902Z,0.95
2022-09-11T04:28:04.405Z,1.62
2022-09-11T04:29:06.846Z,1.37
2022-09-11T04:30:09.893Z,1.30
2022-09-11T04:31:12.372Z,0.96
2022-09-11T04:32:14.942Z,1.31
2022-09-11T04:33:17.385Z,1.51
2022-09-11T04:34:19.848Z,0.82
2022-09-11T04:35:22.289Z,1.26
2022-09-11T04:36:25.337Z,0.96
2022-09-11T04:37:27.805Z,1.22
2022-09-11T04:38:30.343Z,1.62
2022-09-11T04:39:33.093Z,0.97
2022-09-11T04:40:35.669Z,2.13
2022-09-11T04:41:38.305Z,1.71
2022-09-11T04:42:40.969Z,1.31
2022-09-11T04:43:43.801Z,0.95
2022-09-11T04:44:46.400Z,0.81
2022-09-11T04:45:48.856Z,0.67
2022-09-11T04:46:51.680Z,0.90
2022-09-11T04:47:54.372Z,1.18
2022-09-11T04:48:56.872Z,0.93
2022-09-11T04:49:59.321Z,1.15
2022-09-11T04:51:02.361Z,1.18
2022-09-11T04:52:04.808Z,1.36
2022-09-11T04:53:07.349Z,1.50
2022-09-11T04:54:09.773Z,1.14
2022-09-11T04:55:12.229Z,1.21
2022-09-11T04:56:16.477Z,1.77
2022-09-11T04:57:18.908Z,1.09
2022-09-11T04:58:21.368Z,1.16
2022-09-11T04:59:23.833Z,0.93
2022-09-11T05:00:26.708Z,1.22
2022-09-11T05:01:29.343Z,2.31
2022-09-11T05:02:31.825Z,0.97
2022-09-11T05:03:34.382Z,0.95
2022-09-11T05:04:37.085Z,0.99
2022-09-11T05:05:39.523Z,1.04
2022-09-11T05:06:42.362Z,0.92
2022-09-11T05:07:45.003Z,1.57
2022-09-11T05:08:47.466Z,1.17
2022-09-11T05:09:49.899Z,1.62
2022-09-11T05:10:52.736Z,1.22
2022-09-11T05:11:55.174Z,1.90
2022-09-11T05:12:57.650Z,1.03
2022-09-11T05:14:00.213Z,0.76
2022-09-11T05:15:02.642Z,1.08
2022-09-11T05:16:05.544Z,0.84
2022-09-11T05:17:07.985Z,0.90
2022-09-11T05:18:10.426Z,1.78
2022-09-11T05:19:12.993Z,1.08
2022-09-11T05:20:16.461Z,1.11
2022-09-11T05:21:19.105Z,1.70
2022-09-11T05:22:22.103Z,0.81
2022-09-11T05:23:24.751Z,1.04
2022-09-11T05:24:27.236Z,0.96
2022-09-11T05:25:29.667Z,1.25
2022-09-11T05:26:32.514Z,1.26
2022-09-11T05:27:34.949Z,1.25
2022-09-11T05:28:37.392Z,1.17
2022-09-11T05:29:39.855Z,1.23
2022-09-11T05:30:42.513Z,0.89
2022-09-11T05:31:45.001Z,0.91
2022-09-11T05:32:47.607Z,1.17
2022-09-11T05:33:50.046Z,1.05
2022-09-11T05:34:52.541Z,0.92
2022-09-11T05:35:54.978Z,1.08
2022-09-11T05:36:57.630Z,1.20
2022-09-11T05:38:00.058Z,0.93
2022-09-11T05:39:02.501Z,1.01
2022-09-11T05:40:05.380Z,0.89
2022-09-11T05:41:08.005Z,1.07
2022-09-11T05:42:10.649Z,1.57
2022-09-11T05:43:13.383Z,1.49
2022-09-11T05:44:16.227Z,1.00
2022-09-11T05:45:18.705Z,0.96
2022-09-11T05:46:22.974Z,1.12
2022-09-11T05:47:25.607Z,0.95
2022-09-11T05:48:28.048Z,2.09
2022-09-11T05:49:30.524Z,1.41
2022-09-11T05:50:33.926Z,1.41
2022-09-11T05:51:36.361Z,0.88
2022-09-11T05:52:39.111Z,1.09
2022-09-11T05:53:41.641Z,0.88
2022-09-11T05:54:44.533Z,1.05
2022-09-11T05:55:47.055Z,0.87
2022-09-11T05:56:50.059Z,1.04
2022-09-11T05:57:52.563Z,2.20
2022-09-11T05:58:55.013Z,1.14
2022-09-11T05:59:57.471Z,1.29
2022-09-11T06:01:00.316Z,1.23
2022-09-11T06:02:03.019Z,1.43
2022-09-11T06:03:05.904Z,2.42
2022-09-11T06:04:08.607Z,1.05
2022-09-11T06:05:11.111Z,0.89
2022-09-11T06:06:15.193Z,1.41
2022-09-11T06:07:17.672Z,1.29
2022-09-11T06:08:20.103Z,1.71
2022-09-11T06:09:22.573Z,1.11
2022-09-11T06:10:26.949Z,1.32
2022-09-11T06:11:29.427Z,1.37
2022-09-11T06:12:31.862Z,1.29
2022-09-11T06:13:34.357Z,2.90
2022-09-11T06:14:36.850Z,0.86
2022-09-11T06:15:46.454Z,1.10
2022-09-11T06:16:44.079Z,1.13
2022-09-11T06:17:46.690Z,2.13
2022-09-11T06:18:49.601Z,1.95
2022-09-11T06:19:52.317Z,1.87
2022-09-11T06:20:54.960Z,1.49
2022-09-11T06:21:57.456Z,1.51
2022-09-11T06:23:00.293Z,1.47
2022-09-11T06:24:02.733Z,1.17
2022-09-11T06:25:05.222Z,0.99
2022-09-11T06:26:08.675Z,1.30
2022-09-11T06:27:11.147Z,1.27
2022-09-11T06:28:13.578Z,1.41
2022-09-11T06:29:16.021Z,1.47
2022-09-11T06:30:19.632Z,0.95
2022-09-11T06:31:22.128Z,1.49
2022-09-11T06:32:24.632Z,1.24
2022-09-11T06:33:27.062Z,1.05
2022-09-11T06:34:29.505Z,1.21
2022-09-11T06:35:31.935Z,1.43
2022-09-11T06:36:34.703Z,1.68
2022-09-11T06:37:37.169Z,1.21
2022-09-11T06:38:39.605Z,1.40
2022-09-11T06:39:42.098Z,1.99
2022-09-11T06:40:44.885Z,1.11
2022-09-11T06:41:47.427Z,1.34
2022-09-11T06:42:50.108Z,1.53
2022-09-11T06:43:52.551Z,3.17
2022-09-11T06:44:55.091Z,1.21
2022-09-11T06:45:57.575Z,1.72
2022-09-11T06:47:00.889Z,1.57
2022-09-11T06:48:03.353Z,1.57
2022-09-11T06:49:05.800Z,1.52
2022-09-11T06:50:08.767Z,1.60
2022-09-11T06:51:11.512Z,1.99
2022-09-11T06:52:14.127Z,1.71
2022-09-11T06:53:16.857Z,1.42
2022-09-11T06:54:19.294Z,2.23
2022-09-11T06:55:21.766Z,1.69
2022-09-11T06:56:24.514Z,1.44
2022-09-11T06:57:26.957Z,1.65
2022-09-11T06:58:29.454Z,1.67
2022-09-11T06:59:31.890Z,1.63
2022-09-11T07:00:34.538Z,1.65
2022-09-11T07:01:37.898Z,2.39
2022-09-11T07:02:40.841Z,2.01
2022-09-11T07:03:43.420Z,1.59
2022-09-11T07:04:46.177Z,1.56
2022-09-11T07:05:48.647Z,1.35
2022-09-11T07:06:51.531Z,1.64
2022-09-11T07:07:54.170Z,1.26
2022-09-11T07:08:56.842Z,1.36
2022-09-11T07:09:59.485Z,1.18
2022-09-11T07:11:02.150Z,2.31
2022-09-11T07:12:04.591Z,0.92
2022-09-11T07:13:07.036Z,2.43
2022-09-11T07:14:09.532Z,0.80
2022-09-11T07:15:11.975Z,0.92
2022-09-11T07:16:14.947Z,1.31
2022-09-11T07:17:17.562Z,0.95
2022-09-11T07:18:20.004Z,0.81
2022-09-11T07:19:22.484Z,1.11
2022-09-11T07:20:25.525Z,1.87
2022-09-11T07:21:28.303Z,1.61
2022-09-11T07:22:30.946Z,1.13
2022-09-11T07:23:33.424Z,0.93
2022-09-11T07:24:36.060Z,1.11
2022-09-11T07:25:38.584Z,2.01
2022-09-11T07:26:41.339Z,1.15
2022-09-11T07:27:43.819Z,1.42
2022-09-11T07:28:46.274Z,1.56
2022-09-11T07:29:48.775Z,0.80
2022-09-11T07:30:51.669Z,1.04
2022-09-11T07:31:54.371Z,3.17
2022-09-11T07:32:56.815Z,0.99
2022-09-11T07:33:59.253Z,0.84
2022-09-11T07:35:01.735Z,1.31
2022-09-11T07:36:04.380Z,1.16
2022-09-11T07:37:06.962Z,0.95
2022-09-11T07:38:09.409Z,1.25
2022-09-11T07:39:11.843Z,1.17
2022-09-11T07:40:14.562Z,1.03
2022-09-11T07:41:17.411Z,1.21
2022-09-11T07:42:19.858Z,0.91
2022-09-11T07:43:22.313Z,0.80
2022-09-11T07:44:24.933Z,1.00
2022-09-11T07:45:27.438Z,0.88
2022-09-11T07:46:31.739Z,1.01
2022-09-11T07:47:34.177Z,1.01
2022-09-11T07:48:36.722Z,1.07
2022-09-11T07:49:39.174Z,1.41
2022-09-11T07:50:42.077Z,1.18
2022-09-11T07:51:44.546Z,1.10
2022-09-11T07:52:46.993Z,1.08
2022-09-11T07:53:49.443Z,1.04
2022-09-11T07:54:52.134Z,2.85
2022-09-11T07:55:54.714Z,1.83
2022-09-11T07:56:57.461Z,1.55
2022-09-11T07:57:59.905Z,1.30
2022-09-11T07:59:02.348Z,1.23
2022-09-11T08:00:05.240Z,1.39
2022-09-11T08:01:07.846Z,1.37
2022-09-11T08:02:10.484Z,1.37
2022-09-11T08:03:13.466Z,1.36
2022-09-11T08:04:15.923Z,1.28
2022-09-11T08:05:18.361Z,1.22
2022-09-11T08:06:22.682Z,1.63
2022-09-11T08:07:25.392Z,1.77
2022-09-11T08:08:27.857Z,1.57
2022-09-11T08:09:30.295Z,1.01
2022-09-11T08:10:33.042Z,0.98
2022-09-11T08:11:35.539Z,0.71
2022-09-11T08:12:38.076Z,1.10
2022-09-11T08:13:40.822Z,0.76
2022-09-11T08:14:43.613Z,1.25
2022-09-11T08:15:46.054Z,1.95
2022-09-11T08:16:48.889Z,1.22
2022-09-11T08:17:51.468Z,1.01
2022-09-11T08:18:54.217Z,0.70
2022-09-11T08:19:56.656Z,2.26
2022-09-11T08:20:59.503Z,1.39
2022-09-11T08:22:01.997Z,1.27
2022-09-11T08:23:04.535Z,1.05
2022-09-11T08:24:06.979Z,1.03
2022-09-11T08:25:09.752Z,1.39
2022-09-11T08:26:12.806Z,1.29
2022-09-11T08:27:15.497Z,2.07
2022-09-11T08:28:17.951Z,2.53
2022-09-11T08:29:20.495Z,1.37
2022-09-11T08:30:23.850Z,1.97
2022-09-11T08:31:26.489Z,1.95
2022-09-11T08:32:29.589Z,1.37
2022-09-11T08:33:32.051Z,1.23
2022-09-11T08:34:34.500Z,1.12
2022-09-11T08:35:36.945Z,1.35
2022-09-11T08:36:39.839Z,0.86
2022-09-11T08:37:42.637Z,1.15
2022-09-11T08:38:45.192Z,0.93
2022-09-11T08:39:47.670Z,1.65
2022-09-11T08:40:50.478Z,1.51
2022-09-11T08:41:52.921Z,1.17
2022-09-11T08:42:55.908Z,0.86
2022-09-11T08:43:58.356Z,1.20
2022-09-11T08:45:00.802Z,1.66
2022-09-11T08:46:03.602Z,1.17
2022-09-11T08:47:06.096Z,1.52
2022-09-11T08:48:08.570Z,1.19
2022-09-11T08:49:11.044Z,1.21
2022-09-11T08:50:15.341Z,1.05
2022-09-11T08:51:17.800Z,1.15
2022-09-11T08:52:20.436Z,1.39
2022-09-11T08:53:22.911Z,1.41
2022-09-11T08:54:25.462Z,2.14
2022-09-11T08:55:27.963Z,1.31
2022-09-11T08:56:30.534Z,1.83
2022-09-11T08:57:32.979Z,1.98
2022-09-11T08:58:35.445Z,1.15
2022-09-11T08:59:37.894Z,1.90
2022-09-11T09:00:40.656Z,1.33
2022-09-11T09:01:43.575Z,1.16
2022-09-11T09:02:46.041Z,1.49
2022-09-11T09:03:48.532Z,1.12
2022-09-11T09:04:51.178Z,1.83
2022-09-11T09:05:53.938Z,1.03
2022-09-11T09:06:56.586Z,1.47
2022-09-11T09:07:59.076Z,0.96
2022-09-11T09:09:01.545Z,3.19
2022-09-11T09:10:04.766Z,0.92
2022-09-11T09:11:07.205Z,0.87
2022-09-11T09:12:09.653Z,0.83
2022-09-11T09:13:12.098Z,0.83
2022-09-11T09:14:14.587Z,1.87
2022-09-11T09:15:17.035Z,0.66
2022-09-11T09:16:21.361Z,0.79
2022-09-11T09:17:23.855Z,1.04
2022-09-11T09:18:26.302Z,0.99
2022-09-11T09:19:29.013Z,0.81
2022-09-11T09:20:32.566Z,0.79
2022-09-11T09:21:35.001Z,0.77
2022-09-11T09:22:37.458Z,0.85
2022-09-11T09:23:39.950Z,0.90
2022-09-11T09:24:42.655Z,0.60
2022-09-11T09:25:45.293Z,0.81
2022-09-11T09:26:47.936Z,0.81
2022-09-11T09:27:50.572Z,0.88
2022-09-11T09:28:53.010Z,0.49
2022-09-11T09:29:55.518Z,0.62
2022-09-11T09:30:58.616Z,0.89
2022-09-11T09:32:01.293Z,1.83
2022-09-11T09:33:03.732Z,1.11
2022-09-11T09:34:06.167Z,0.68
2022-09-11T09:35:08.675Z,0.99
2022-09-11T09:36:11.614Z,0.85
2022-09-11T09:37:14.057Z,0.61
2022-09-11T09:38:18.701Z,0.80
2022-09-11T09:39:20.914Z,0.78
2022-09-11T09:40:24.839Z,0.74
2022-09-11T09:41:27.810Z,0.86
2022-09-11T09:42:30.443Z,3.06
2022-09-11T09:43:32.881Z,0.58
2022-09-11T09:44:35.419Z,0.80
2022-09-11T09:45:37.939Z,0.87
2022-09-11T09:46:40.871Z,1.89
2022-09-11T09:47:43.333Z,0.81
2022-09-11T09:48:45.776Z,0.99
2022-09-11T09:49:48.248Z,1.29
2022-09-11T09:50:50.940Z,1.43
2022-09-11T09:51:53.475Z,1.00
2022-09-11T09:52:55.911Z,0.69
2022-09-11T09:53:58.345Z,0.81
2022-09-11T09:55:00.783Z,0.96
2022-09-11T09:56:03.661Z,0.86
2022-09-11T09:57:06.095Z,1.24
2022-09-11T09:58:08.917Z,1.04
2022-09-11T09:59:11.374Z,0.69
2022-09-11T10:00:15.231Z,1.05
2022-09-11T10:01:18.151Z,0.77
2022-09-11T10:02:21.121Z,0.71
2022-09-11T10:03:23.645Z,0.85
2022-09-11T10:04:26.105Z,1.49
2022-09-11T10:05:28.544Z,0.92
2022-09-11T10:06:31.222Z,1.13
2022-09-11T10:07:33.684Z,1.06
2022-09-11T10:08:36.121Z,0.82
2022-09-11T10:09:38.593Z,0.71
2022-09-11T10:10:41.233Z,0.77
2022-09-11T10:11:43.930Z,0.59
2022-09-11T10:12:46.575Z,0.62
2022-09-11T10:13:49.327Z,0.91
2022-09-11T10:14:52.487Z,0.95
2022-09-11T10:15:55.300Z,0.96
2022-09-11T10:16:58.022Z,0.75
2022-09-11T10:18:00.487Z,0.73
2022-09-11T10:19:03.443Z,1.32
2022-09-11T10:20:06.189Z,0.58
2022-09-11T10:21:08.835Z,0.65
2022-09-11T10:22:11.531Z,0.83
2022-09-11T10:23:14.190Z,0.73
2022-09-11T10:24:16.679Z,1.15
2022-09-11T10:25:19.128Z,0.79
2022-09-11T10:26:22.621Z,0.49
2022-09-11T10:27:28.458Z,0.77
2022-09-11T10:28:29.454Z,0.79
2022-09-11T10:29:32.100Z,0.82
2022-09-11T10:30:35.662Z,0.87
2022-09-11T10:31:38.106Z,0.79
2022-09-11T10:32:40.591Z,1.37
2022-09-11T10:33:43.338Z,1.43
2022-09-11T10:34:45.777Z,1.49
2022-09-11T10:35:48.251Z,1.59
2022-09-11T10:36:51.126Z,1.31
2022-09-11T10:37:53.640Z,1.49
2022-09-11T10:38:56.207Z,1.24
2022-09-11T10:39:58.689Z,1.32
2022-09-11T10:41:01.416Z,1.77
2022-09-11T10:42:03.856Z,1.53
2022-09-11T10:43:06.613Z,2.86
2022-09-11T10:44:09.048Z,1.46
2022-09-11T10:45:11.498Z,1.43
2022-09-11T10:46:14.493Z,2.71
2022-09-11T10:47:16.999Z,1.90
2022-09-11T10:48:19.463Z,1.23
2022-09-11T10:49:21.930Z,1.23
2022-09-11T10:50:24.587Z,1.29
2022-09-11T10:51:27.033Z,0.73
2022-09-11T10:52:29.469Z,0.83
2022-09-11T10:53:32.036Z,0.67
2022-09-11T10:54:34.484Z,0.62
2022-09-11T10:55:36.936Z,0.67
2022-09-11T10:56:39.673Z,0.43
2022-09-11T10:57:42.126Z,0.68
2022-09-11T10:58:44.728Z,0.73
2022-09-11T10:59:47.642Z,1.56
2022-09-11T11:00:50.312Z,0.60
2022-09-11T11:01:52.929Z,1.52
2022-09-11T11:02:55.717Z,0.60
2022-09-11T11:03:58.182Z,0.73
2022-09-11T11:05:00.680Z,0.87
2022-09-11T11:06:03.337Z,0.63
2022-09-11T11:07:05.974Z,0.52
2022-09-11T11:08:08.715Z,0.43
2022-09-11T11:09:11.234Z,0.69
2022-09-11T11:10:15.060Z,0.64
2022-09-11T11:11:17.503Z,0.60
2022-09-11T11:12:19.970Z,1.05
2022-09-11T11:13:22.651Z,0.83
2022-09-11T11:14:25.316Z,0.50
2022-09-11T11:15:30.256Z,0.68
2022-09-11T11:16:32.568Z,1.17
2022-09-11T11:17:35.027Z,0.85
2022-09-11T11:18:37.473Z,1.57
2022-09-11T11:19:39.953Z,1.77
2022-09-11T11:20:43.094Z,1.49
2022-09-11T11:21:45.830Z,1.34
2022-09-11T11:22:48.268Z,1.58
2022-09-11T11:23:50.713Z,1.77
2022-09-11T11:24:53.196Z,2.85
2022-09-11T11:25:55.631Z,2.35
2022-09-11T11:26:58.270Z,1.83
2022-09-11T11:28:00.817Z,1.93
2022-09-11T11:29:03.261Z,2.13
2022-09-11T11:30:06.348Z,2.58
2022-09-11T11:31:08.836Z,2.35
2022-09-11T11:32:11.326Z,2.35
2022-09-11T11:33:13.761Z,2.19
2022-09-11T11:34:16.649Z,3.72
2022-09-11T11:35:19.124Z,2.49
2022-09-11T11:36:22.285Z,2.86
2022-09-11T11:37:24.742Z,3.01
2022-09-11T11:38:27.183Z,2.47
2022-09-11T11:39:29.626Z,3.12
2022-09-11T11:40:32.439Z,2.79
2022-09-11T11:41:34.882Z,2.67
2022-09-11T11:42:37.655Z,2.78
2022-09-11T11:43:40.154Z,2.77
2022-09-11T11:44:42.593Z,3.01
2022-09-11T11:45:46.000Z,2.51
2022-09-11T11:46:48.916Z,3.17
2022-09-11T11:47:51.416Z,3.25
2022-09-11T11:48:53.850Z,2.47
2022-09-11T11:49:56.484Z,2.23
2022-09-11T11:50:59.369Z,2.46
2022-09-11T11:52:01.807Z,2.71
2022-09-11T11:53:04.251Z,2.35
2022-09-11T11:54:06.794Z,2.27
2022-09-11T11:55:09.755Z,2.32
2022-09-11T11:56:13.335Z,2.04
2022-09-11T11:57:15.787Z,2.39
2022-09-11T11:58:18.340Z,2.78
2022-09-11T11:59:21.013Z,2.00
2022-09-11T12:00:23.652Z,1.93
2022-09-11T12:01:26.440Z,2.63
2022-09-11T12:02:29.335Z,2.24
2022-09-11T12:03:31.813Z,2.65
2022-09-11T12:04:34.229Z,2.01
2022-09-11T12:05:36.689Z,1.93
2022-09-11T12:06:39.401Z,2.23
2022-09-11T12:07:41.846Z,2.01
2022-09-11T12:08:44.481Z,1.85
2022-09-11T12:09:47.307Z,2.01
2022-09-11T12:10:50.077Z,1.68
2022-09-11T12:11:52.576Z,2.07
2022-09-11T12:12:55.026Z,1.93
2022-09-11T12:13:57.771Z,2.49
2022-09-11T12:15:00.222Z,1.94
2022-09-11T12:16:02.835Z,2.71
2022-09-11T12:17:05.459Z,2.41
2022-09-11T12:18:07.902Z,2.55
2022-09-11T12:19:10.347Z,2.67
2022-09-11T12:20:13.534Z,2.81
2022-09-11T12:21:16.483Z,2.61
2022-09-11T12:22:19.184Z,2.16
2022-09-11T12:23:21.626Z,2.17
2022-09-11T12:24:24.067Z,2.59
2022-09-11T12:25:26.851Z,2.71
2022-09-11T12:26:29.821Z,2.61
2022-09-11T12:27:32.507Z,1.85
2022-09-11T12:28:35.167Z,2.73
2022-09-11T12:29:37.716Z,2.33
2022-09-11T12:30:40.462Z,1.87
2022-09-11T12:31:42.958Z,2.77
2022-09-11T12:32:45.518Z,1.81
2022-09-11T12:33:47.971Z,2.31
2022-09-11T12:34:50.547Z,2.95
2022-09-11T12:35:53.201Z,2.72
2022-09-11T12:36:55.847Z,2.16
2022-09-11T12:37:58.366Z,2.09
2022-09-11T12:39:00.821Z,2.32
2022-09-11T12:40:03.595Z,2.58
2022-09-11T12:41:06.120Z,4.25
2022-09-11T12:42:08.555Z,2.54
2022-09-11T12:43:11.056Z,2.97
2022-09-11T12:44:13.490Z,2.57
2022-09-11T12:45:15.959Z,2.41
2022-09-11T12:46:19.324Z,2.37
2022-09-11T12:47:21.762Z,2.79
2022-09-11T12:48:24.505Z,2.67
2022-09-11T12:49:27.517Z,1.94
2022-09-11T12:50:30.297Z,2.11
2022-09-11T12:51:32.748Z,2.30
2022-09-11T12:52:35.195Z,2.33
2022-09-11T12:53:37.822Z,2.47
2022-09-11T12:54:40.277Z,1.79
2022-09-11T12:55:42.717Z,2.39
2022-09-11T12:56:45.364Z,1.71
2022-09-11T12:57:48.029Z,1.99
2022-09-11T12:58:50.512Z,2.83
2022-09-11T12:59:52.960Z,2.23
2022-09-11T13:00:55.704Z,2.92
2022-09-11T13:01:58.806Z,1.94
2022-09-11T13:03:03.109Z,1.79
2022-09-11T13:04:05.584Z,2.74
2022-09-11T13:05:08.300Z,1.81
2022-09-11T13:06:11.961Z,1.70
2022-09-11T13:07:14.514Z,1.65
2022-09-11T13:08:16.952Z,1.93
2022-09-11T13:09:19.432Z,1.81
2022-09-11T13:10:23.200Z,2.04
2022-09-11T13:11:26.700Z,1.71
2022-09-11T13:12:29.140Z,1.79
2022-09-11T13:13:31.589Z,1.90
2022-09-11T13:14:34.164Z,1.61
2022-09-11T13:15:36.856Z,1.51
2022-09-11T13:16:39.775Z,2.93
2022-09-11T13:17:42.265Z,2.88
2022-09-11T13:18:44.859Z,2.23
2022-09-11T13:19:48.903Z,3.18
2022-09-11T13:20:51.674Z,2.77
2022-09-11T13:21:54.331Z,2.92
2022-09-11T13:22:58.566Z,2.59
2022-09-11T13:24:01.333Z,2.15
2022-09-11T13:25:03.798Z,2.16
2022-09-11T13:26:06.852Z,3.63
2022-09-11T13:27:09.287Z,1.91
2022-09-11T13:28:14.467Z,2.12
2022-09-11T13:29:16.286Z,1.71
2022-09-11T13:30:20.590Z,2.24
2022-09-11T13:31:23.054Z,1.79
2022-09-11T13:32:25.649Z,2.01
2022-09-11T13:33:28.284Z,1.95
2022-09-11T13:34:30.723Z,2.89
2022-09-11T13:35:33.189Z,2.11
2022-09-11T13:36:36.360Z,2.09
2022-09-11T13:37:38.810Z,2.01
2022-09-11T13:38:41.252Z,2.73
2022-09-11T13:39:43.731Z,3.11
2022-09-11T13:40:46.501Z,3.11
2022-09-11T13:41:49.344Z,3.56
2022-09-11T13:42:51.814Z,2.94
2022-09-11T13:43:57.968Z,2.67
2022-09-11T13:44:58.884Z,2.55
2022-09-11T13:46:01.409Z,3.16
2022-09-11T13:47:04.030Z,2.85
2022-09-11T13:48:06.461Z,2.64
2022-09-11T13:49:08.943Z,2.43
2022-09-11T13:50:12.593Z,2.60
2022-09-11T13:51:15.093Z,2.30
2022-09-11T13:52:17.689Z,2.35
2022-09-11T13:53:20.179Z,2.46
2022-09-11T13:54:22.624Z,2.32